Fresno, OH (43824)

1:01 PM EDT op 30 augustus 2016 (GMT -0400)
whiteeyes township | | Change Station

Hoogte 1125 ft 40.35 °N, 81.80 °W | Updated 1 second ago

Clear
Helder
80.8 °F
Voelt als 81 °F
N
1.1
Wind Variabel Wind van west
Gusts 2.5 mijl/u

Vandaag
Hoog -- | Laag -- °F
--% Kans op neerslag
Gisteren
Hoog -- | Laag -- °F
Precip. -- inches
Druk 30.15 inches
Zicht 10.0 mijlen
Wolken Helder
Warmteindex 81 °F
Dauwpunt 59 °F
Vochtigheid 48%
Neerslag 0.00 inches
Dikte sneeuw Niet beschikbaar.
6:53 AM 8:01 PM
Afnemende halvemaan, 3% visible
METAR KPHD 301653Z AUTO VRB03KT 10SM CLR 30/11 A3016 RMK AO2 SLP208 T03000111
Druk 30.15 inches
Zicht 10.0 mijlen
Wolken Helder
Warmteindex 81 °F
Dauwpunt 59 °F
Vochtigheid 48%
Neerslag 0.00 inches
Dikte sneeuw Niet beschikbaar.
6:53 AM 8:01 PM
Afnemende halvemaan, 3% visible
METAR KPHD 301653Z AUTO VRB03KT 10SM CLR 30/11 A3016 RMK AO2 SLP208 T03000111

10-Day Weather Forecast

Almanac

Astronomie

Aug. 30, 2016 Opkomst Ondergang
Werkelijke tijd
Burgerlijke schemering
Nautische schemering
Astronomische schemering
Maan
Golflengte van het zichtbare licht
Daglengte
Tomorrow will be .
, % of the Moon is Illuminated

Extremen vandaag

State Highs State Lows

Community

WunderPhotos

Upload Photos

1,935,845 foto’s ge-upload!

WunderBlog® & News

Nearby

Luchtkwaliteit

  Luchtkwaliteit LK-index Verontreinigende stof
Not available.

Dikte sneeuw

Station Depth Geometrische hoogte

Aardbevingen

Stad Distance Mag. Time & Date
Minimum magnitude displayed is 2.5.

Watertemperatuur langs de kust

Plaats Temperatuur

Stations

Nabije weerstations

Locatie station Temp. Gevoelstemperatuur Dauwpunt Vochtigheid Wind Precip. Hoogte Geactualiseerd Type
                   

Watches & Warnings

There are currently no watches in effect.